createdAt,value
2019-06-20T00:00:35.763Z,87.20
2019-06-20T00:03:02.803Z,87.20
2019-06-20T00:05:29.114Z,86.90
2019-06-20T00:07:55.539Z,85.40
2019-06-20T00:10:21.877Z,84.70
2019-06-20T00:12:59.860Z,83.70
2019-06-20T00:15:17.566Z,83.80
2019-06-20T00:17:45.436Z,83.30
2019-06-20T00:20:13.459Z,83.20
2019-06-20T00:22:43.099Z,85.40
2019-06-20T00:25:11.360Z,84.70
2019-06-20T00:27:38.152Z,84.10
2019-06-20T00:30:05.616Z,84.50
2019-06-20T00:32:33.277Z,84.40
2019-06-20T00:34:59.551Z,84.10
2019-06-20T00:37:25.761Z,83.90
2019-06-20T00:39:52.024Z,84.00
2019-06-20T00:42:18.434Z,84.10
2019-06-20T00:44:44.794Z,85.10
2019-06-20T00:47:11.034Z,84.40
2019-06-20T00:49:37.311Z,84.40
2019-06-20T00:52:03.652Z,84.30
2019-06-20T00:54:29.901Z,85.20
2019-06-20T00:56:56.146Z,84.60
2019-06-20T00:59:22.856Z,85.20
2019-06-20T01:01:49.145Z,85.60
2019-06-20T01:04:15.403Z,87.90
2019-06-20T01:06:41.758Z,89.70
2019-06-20T01:09:09.547Z,90.30
2019-06-20T01:11:35.908Z,89.60
2019-06-20T01:14:03.498Z,88.90
2019-06-20T01:16:29.786Z,88.80
2019-06-20T01:18:57.550Z,88.80
2019-06-20T01:21:23.804Z,88.50
2019-06-20T01:23:50.223Z,89.70
2019-06-20T01:26:16.754Z,89.90
2019-06-20T01:28:43.016Z,88.90
2019-06-20T01:31:09.281Z,88.40
2019-06-20T01:33:35.534Z,89.90
2019-06-20T01:36:01.901Z,89.00
2019-06-20T01:38:28.131Z,89.70
2019-06-20T01:40:54.375Z,90.10
2019-06-20T01:43:20.628Z,88.50
2019-06-20T01:45:46.835Z,87.70
2019-06-20T01:48:13.115Z,88.50
2019-06-20T01:50:39.755Z,87.40
2019-06-20T01:53:06.051Z,88.60
2019-06-20T01:55:32.394Z,88.40
2019-06-20T01:57:58.670Z,88.20
2019-06-20T02:00:34.484Z,87.60
2019-06-20T02:03:01.156Z,87.40
2019-06-20T02:05:27.529Z,87.50
2019-06-20T02:07:53.740Z,87.80
2019-06-20T02:10:19.944Z,88.50
2019-06-20T02:12:46.214Z,88.00
2019-06-20T02:15:12.881Z,88.50
2019-06-20T02:17:39.882Z,88.80
2019-06-20T02:20:06.424Z,88.70
2019-06-20T02:22:33.841Z,89.60
2019-06-20T02:25:00.108Z,89.90
2019-06-20T02:27:26.388Z,90.20
2019-06-20T02:29:52.671Z,90.50
2019-06-20T02:32:18.923Z,90.50
2019-06-20T02:34:45.158Z,91.00
2019-06-20T02:37:11.661Z,90.40
2019-06-20T02:39:37.977Z,90.10
2019-06-20T02:42:04.406Z,90.80
2019-06-20T02:44:31.006Z,90.90
2019-06-20T02:46:57.552Z,91.60
2019-06-20T02:49:24.858Z,90.60
2019-06-20T02:51:52.468Z,90.30
2019-06-20T02:54:18.796Z,91.60
2019-06-20T02:56:45.245Z,91.40
2019-06-20T02:59:11.485Z,91.80
2019-06-20T03:01:37.723Z,91.30
2019-06-20T03:04:03.983Z,91.50
2019-06-20T03:06:30.419Z,90.90
2019-06-20T03:08:56.700Z,91.50
2019-06-20T03:11:23.056Z,91.30
2019-06-20T03:13:49.431Z,92.20
2019-06-20T03:16:15.650Z,92.00
2019-06-20T03:18:42.594Z,91.70
2019-06-20T03:21:08.967Z,91.80
2019-06-20T03:23:35.304Z,91.70
2019-06-20T03:26:01.689Z,91.00
2019-06-20T03:28:28.015Z,90.80
2019-06-20T03:30:54.256Z,90.50
2019-06-20T03:33:20.581Z,90.60
2019-06-20T03:35:46.823Z,90.40
2019-06-20T03:38:13.093Z,90.80
2019-06-20T03:40:39.320Z,91.20
2019-06-20T03:43:11.497Z,91.00
2019-06-20T03:45:37.747Z,90.70
2019-06-20T03:48:04.136Z,90.40
2019-06-20T03:50:30.782Z,90.90
2019-06-20T03:53:03.084Z,90.90
2019-06-20T03:55:30.516Z,91.00
2019-06-20T03:57:58.296Z,90.80
2019-06-20T04:00:27.603Z,90.90
2019-06-20T04:02:53.857Z,91.20
2019-06-20T04:05:20.130Z,91.30
2019-06-20T04:07:46.381Z,91.60
2019-06-20T04:10:12.761Z,91.20
2019-06-20T04:12:39.324Z,90.80
2019-06-20T04:15:18.593Z,90.80
2019-06-20T04:17:33.759Z,90.50
2019-06-20T04:20:00.044Z,90.70
2019-06-20T04:22:26.376Z,91.00
2019-06-20T04:24:52.646Z,91.00
2019-06-20T04:27:18.891Z,90.90
2019-06-20T04:29:45.139Z,90.60
2019-06-20T04:32:11.397Z,90.40
2019-06-20T04:34:37.637Z,90.00
2019-06-20T04:37:04.043Z,90.00
2019-06-20T04:39:30.697Z,90.00
2019-06-20T04:41:56.947Z,90.00
2019-06-20T04:44:23.215Z,90.30
2019-06-20T04:47:03.445Z,90.30
2019-06-20T04:49:29.743Z,90.50
2019-06-20T04:51:55.986Z,90.50
2019-06-20T04:54:22.362Z,90.30
2019-06-20T04:56:48.638Z,90.60
2019-06-20T04:59:14.886Z,90.70
2019-06-20T05:01:42.335Z,90.40
2019-06-20T05:04:08.846Z,90.10
2019-06-20T05:06:35.115Z,89.90
2019-06-20T05:09:01.403Z,90.20
2019-06-20T05:11:28.563Z,90.70
2019-06-20T05:13:54.832Z,90.30
2019-06-20T05:16:21.088Z,90.20
2019-06-20T05:18:47.345Z,90.40
2019-06-20T05:21:13.617Z,90.20
2019-06-20T05:23:39.831Z,90.00
2019-06-20T05:26:06.110Z,89.80
2019-06-20T05:28:32.549Z,89.70
2019-06-20T05:30:58.805Z,89.90
2019-06-20T05:33:25.142Z,89.50
2019-06-20T05:35:51.439Z,89.50
2019-06-20T05:38:17.680Z,89.80
2019-06-20T05:40:43.947Z,90.40
2019-06-20T05:43:11.312Z,90.60
2019-06-20T05:45:37.781Z,90.90
2019-06-20T05:48:04.150Z,90.00
2019-06-20T05:50:31.001Z,89.20
2019-06-20T05:52:57.360Z,89.50
2019-06-20T05:55:23.585Z,89.80
2019-06-20T05:57:49.909Z,89.10
2019-06-20T06:00:16.707Z,89.10
2019-06-20T06:02:42.935Z,90.00
2019-06-20T06:05:11.265Z,90.60
2019-06-20T06:07:37.512Z,90.50
2019-06-20T06:10:06.155Z,90.10
2019-06-20T06:12:32.824Z,90.20
2019-06-20T06:15:00.994Z,90.10
2019-06-20T06:17:27.425Z,90.20
2019-06-20T06:19:53.679Z,89.90
2019-06-20T06:22:19.991Z,90.10
2019-06-20T06:24:46.287Z,90.00
2019-06-20T06:27:12.607Z,90.00
2019-06-20T06:29:40.114Z,89.90
2019-06-20T06:32:06.438Z,89.90
2019-06-20T06:34:32.693Z,89.80
2019-06-20T06:36:59.019Z,90.60
2019-06-20T06:39:25.391Z,90.50
2019-06-20T06:41:51.812Z,90.10
2019-06-20T06:44:18.051Z,89.50
2019-06-20T06:46:53.002Z,89.30
2019-06-20T06:49:12.588Z,90.00
2019-06-20T06:51:38.936Z,89.70
2019-06-20T06:54:05.261Z,89.00
2019-06-20T06:56:31.513Z,88.20
2019-06-20T06:58:57.883Z,87.40
2019-06-20T07:01:24.296Z,87.20
2019-06-20T07:03:50.557Z,87.60
2019-06-20T07:06:16.915Z,87.10
2019-06-20T07:08:43.141Z,87.40
2019-06-20T07:11:09.376Z,87.60
2019-06-20T07:13:36.707Z,87.20
2019-06-20T07:16:04.278Z,86.90
2019-06-20T07:18:30.887Z,86.80
2019-06-20T07:20:57.157Z,86.90
2019-06-20T07:23:23.534Z,86.70
2019-06-20T07:25:49.948Z,86.80
2019-06-20T07:28:16.268Z,86.50
2019-06-20T07:30:42.890Z,86.50
2019-06-20T07:33:09.235Z,86.90
2019-06-20T07:35:35.475Z,86.50
2019-06-20T07:38:01.737Z,85.10
2019-06-20T07:40:27.968Z,85.50
2019-06-20T07:42:54.497Z,86.30
2019-06-20T07:45:27.253Z,86.40
2019-06-20T07:47:53.256Z,86.70
2019-06-20T07:50:19.467Z,86.20
2019-06-20T07:53:00.898Z,86.00
2019-06-20T07:55:14.380Z,86.50
2019-06-20T07:57:40.645Z,86.00
2019-06-20T08:00:09.893Z,85.80
2019-06-20T08:02:36.556Z,85.60
2019-06-20T08:05:04.491Z,84.80
2019-06-20T08:07:30.805Z,85.40
2019-06-20T08:09:57.047Z,84.90
2019-06-20T08:12:23.444Z,85.00
2019-06-20T08:14:49.673Z,84.90
2019-06-20T08:17:15.942Z,83.30
2019-06-20T08:19:42.145Z,83.60
2019-06-20T08:22:08.496Z,84.60
2019-06-20T08:24:35.746Z,84.80
2019-06-20T08:27:03.178Z,83.20
2019-06-20T08:29:30.158Z,83.60
2019-06-20T08:31:57.987Z,84.50
2019-06-20T08:34:26.758Z,85.20
2019-06-20T08:36:53.004Z,85.70
2019-06-20T08:39:19.273Z,85.50
2019-06-20T08:41:45.640Z,85.10
2019-06-20T08:44:11.869Z,84.80
2019-06-20T08:46:38.450Z,84.60
2019-06-20T08:49:05.792Z,84.40
2019-06-20T08:51:32.497Z,85.20
2019-06-20T08:53:59.266Z,84.70
2019-06-20T08:56:25.535Z,84.30
2019-06-20T08:58:51.884Z,84.30
2019-06-20T09:01:18.078Z,83.90
2019-06-20T09:03:44.424Z,83.00
2019-06-20T09:06:10.657Z,82.20
2019-06-20T09:08:36.903Z,82.40
2019-06-20T09:11:22.954Z,81.70
2019-06-20T09:13:49.233Z,81.60
2019-06-20T09:16:24.349Z,82.00
2019-06-20T09:18:43.532Z,80.90
2019-06-20T09:21:09.658Z,80.20
2019-06-20T09:23:35.896Z,79.60
2019-06-20T09:26:02.108Z,79.00
2019-06-20T09:28:28.365Z,79.90
2019-06-20T09:30:55.196Z,79.60
2019-06-20T09:33:21.785Z,79.80
2019-06-20T09:35:47.949Z,78.60
2019-06-20T09:38:14.106Z,78.80
2019-06-20T09:40:40.242Z,78.90
2019-06-20T09:43:06.464Z,78.60
2019-06-20T09:45:32.897Z,79.30
2019-06-20T09:47:59.077Z,79.00
2019-06-20T09:50:25.478Z,78.50
2019-06-20T09:52:53.177Z,78.20
2019-06-20T09:55:19.928Z,77.20
2019-06-20T09:57:47.287Z,78.10
2019-06-20T10:00:20.740Z,77.70
2019-06-20T10:02:48.932Z,76.70
2019-06-20T10:05:15.325Z,76.90
2019-06-20T10:07:41.517Z,76.60
2019-06-20T10:10:09.684Z,76.90
2019-06-20T10:12:35.810Z,76.60
2019-06-20T10:15:08.206Z,77.20
2019-06-20T10:17:34.413Z,77.40
2019-06-20T10:20:00.585Z,78.20
2019-06-20T10:22:26.727Z,77.60
2019-06-20T10:24:53.597Z,76.30
2019-06-20T10:27:20.218Z,75.70
2019-06-20T10:29:47.530Z,75.70
2019-06-20T10:32:14.414Z,76.30
2019-06-20T10:34:40.593Z,76.40
2019-06-20T10:37:06.722Z,77.30
2019-06-20T10:39:32.877Z,77.00
2019-06-20T10:41:59.104Z,77.20
2019-06-20T10:44:25.251Z,76.70
2019-06-20T10:46:51.461Z,75.60
2019-06-20T10:49:17.769Z,76.30
2019-06-20T10:51:45.962Z,75.90
2019-06-20T10:54:12.215Z,75.00
2019-06-20T10:56:38.700Z,75.60
2019-06-20T10:59:04.961Z,75.90
2019-06-20T11:01:31.359Z,76.10
2019-06-20T11:03:57.580Z,74.80
2019-06-20T11:06:23.743Z,75.00
2019-06-20T11:08:50.155Z,75.20
2019-06-20T11:11:16.366Z,74.10
2019-06-20T11:13:42.567Z,73.90
2019-06-20T11:16:08.834Z,74.60
2019-06-20T11:18:34.982Z,75.00
2019-06-20T11:21:01.221Z,75.00
2019-06-20T11:23:27.458Z,75.40
2019-06-20T11:25:53.606Z,74.40
2019-06-20T11:28:19.781Z,74.30
2019-06-20T11:30:56.093Z,75.00
2019-06-20T11:33:14.441Z,75.40
2019-06-20T11:35:41.828Z,74.40
2019-06-20T11:38:08.153Z,74.00
2019-06-20T11:40:36.372Z,73.50
2019-06-20T11:43:03.437Z,72.90
2019-06-20T11:45:29.815Z,72.90
2019-06-20T11:47:55.977Z,73.30
2019-06-20T11:50:22.212Z,73.40
2019-06-20T11:52:48.504Z,73.40
2019-06-20T11:55:14.901Z,73.50
2019-06-20T11:57:41.136Z,72.50
2019-06-20T12:00:08.086Z,72.60
2019-06-20T12:02:34.270Z,73.30
2019-06-20T12:05:00.412Z,73.50
2019-06-20T12:07:26.593Z,74.60
2019-06-20T12:09:52.750Z,73.60
2019-06-20T12:12:18.957Z,74.20
2019-06-20T12:14:46.667Z,74.80
2019-06-20T12:17:13.154Z,74.20
2019-06-20T12:19:40.633Z,74.00
2019-06-20T12:22:07.226Z,74.40
2019-06-20T12:24:34.038Z,74.70
2019-06-20T12:27:00.170Z,75.40
2019-06-20T12:29:26.366Z,79.70
2019-06-20T12:31:52.889Z,83.70
2019-06-20T12:34:19.162Z,86.60
2019-06-20T12:36:46.659Z,91.60
2019-06-20T12:39:13.007Z,92.30
2019-06-20T12:41:39.711Z,91.30
2019-06-20T12:44:07.245Z,92.10
2019-06-20T12:46:33.370Z,92.40
2019-06-20T12:48:59.515Z,92.10
2019-06-20T12:51:25.697Z,90.70
2019-06-20T12:53:51.907Z,89.50
2019-06-20T12:56:18.105Z,88.80
2019-06-20T12:58:44.530Z,90.70
2019-06-20T13:01:10.725Z,92.30
2019-06-20T13:03:38.558Z,91.60
2019-06-20T13:06:04.980Z,91.80
2019-06-20T13:08:31.261Z,89.80
2019-06-20T13:10:57.462Z,91.00
2019-06-20T13:13:23.609Z,88.20
2019-06-20T13:15:49.798Z,90.90
2019-06-20T13:18:17.166Z,90.90
2019-06-20T13:20:44.245Z,91.30
2019-06-20T13:23:10.621Z,91.60
2019-06-20T13:25:37.715Z,91.70
2019-06-20T13:28:04.874Z,92.10
2019-06-20T13:30:31.090Z,91.50
2019-06-20T13:32:57.225Z,91.30
2019-06-20T13:35:23.570Z,92.60
2019-06-20T13:37:50.093Z,92.80
2019-06-20T13:40:16.789Z,92.20
2019-06-20T13:42:44.214Z,91.90
2019-06-20T13:45:23.650Z,92.30
2019-06-20T13:47:50.053Z,94.00
2019-06-20T13:50:16.747Z,94.70
2019-06-20T13:52:45.371Z,95.30
2019-06-20T13:55:11.363Z,94.20
2019-06-20T13:57:37.580Z,91.80
2019-06-20T14:00:07.369Z,93.40
2019-06-20T14:02:33.588Z,92.20
2019-06-20T14:04:59.744Z,92.00
2019-06-20T14:07:25.887Z,90.80
2019-06-20T14:09:52.034Z,91.30
2019-06-20T14:12:18.173Z,91.60
2019-06-20T14:14:45.740Z,91.70
2019-06-20T14:17:11.985Z,92.00
2019-06-20T14:19:38.177Z,93.10
2019-06-20T14:22:04.474Z,92.90
2019-06-20T14:24:30.877Z,92.40
2019-06-20T14:26:58.390Z,93.10
2019-06-20T14:29:24.771Z,93.40
2019-06-20T14:31:51.643Z,93.10
2019-06-20T14:34:17.868Z,92.70
2019-06-20T14:36:44.747Z,94.70
2019-06-20T14:39:12.175Z,93.90
2019-06-20T14:41:38.333Z,94.30
2019-06-20T14:44:04.561Z,94.10
2019-06-20T14:46:30.761Z,94.10
2019-06-20T14:48:56.983Z,94.40
2019-06-20T14:51:23.174Z,94.60
2019-06-20T14:53:49.652Z,93.90
2019-06-20T14:56:15.990Z,93.20
2019-06-20T14:58:44.736Z,94.40
2019-06-20T15:01:10.319Z,93.00
2019-06-20T15:03:36.441Z,93.80
2019-06-20T15:06:02.765Z,93.70
2019-06-20T15:08:29.002Z,91.50
2019-06-20T15:10:55.201Z,88.90
2019-06-20T15:13:21.333Z,86.50
2019-06-20T15:15:47.915Z,83.80
2019-06-20T15:18:15.425Z,84.40
2019-06-20T15:20:41.578Z,83.50
2019-06-20T15:23:07.970Z,82.90
2019-06-20T15:25:34.349Z,82.90
2019-06-20T15:28:00.697Z,82.10
2019-06-20T15:30:26.937Z,81.40
2019-06-20T15:33:05.861Z,81.70
2019-06-20T15:35:21.369Z,81.20
2019-06-20T15:37:48.493Z,82.00
2019-06-20T15:40:16.477Z,81.50
2019-06-20T15:42:42.615Z,81.90
2019-06-20T15:45:09.673Z,81.10
2019-06-20T15:47:36.569Z,82.20
2019-06-20T15:50:07.140Z,82.20
2019-06-20T15:52:33.279Z,80.50
2019-06-20T15:54:59.498Z,81.40
2019-06-20T15:57:25.693Z,81.80
2019-06-20T15:59:51.841Z,82.50
2019-06-20T16:02:18.131Z,83.40
2019-06-20T16:04:44.356Z,82.90
2019-06-20T16:07:10.503Z,82.90
2019-06-20T16:09:36.990Z,83.00
2019-06-20T16:12:03.245Z,82.10
2019-06-20T16:14:29.389Z,81.60
2019-06-20T16:16:55.537Z,80.30
2019-06-20T16:19:21.752Z,81.10
2019-06-20T16:22:01.455Z,81.30
2019-06-20T16:24:28.026Z,79.70
2019-06-20T16:26:54.447Z,80.20
2019-06-20T16:29:20.735Z,80.30
2019-06-20T16:31:47.050Z,80.20
2019-06-20T16:34:13.548Z,80.60
2019-06-20T16:36:39.881Z,80.90
2019-06-20T16:39:06.708Z,80.10
2019-06-20T16:41:33.157Z,80.60
2019-06-20T16:43:59.384Z,80.00
2019-06-20T16:46:25.636Z,79.40
2019-06-20T16:48:52.072Z,79.70
2019-06-20T16:51:18.377Z,79.20
2019-06-20T16:53:44.712Z,79.70
2019-06-20T16:56:11.232Z,79.80
2019-06-20T16:58:37.534Z,80.00
2019-06-20T17:01:03.917Z,79.40
2019-06-20T17:03:41.317Z,80.10
2019-06-20T17:05:58.532Z,79.30
2019-06-20T17:08:24.812Z,78.90
2019-06-20T17:10:51.083Z,79.50
2019-06-20T17:13:17.629Z,79.20
2019-06-20T17:15:44.208Z,78.00
2019-06-20T17:18:10.439Z,78.30
2019-06-20T17:20:36.674Z,78.00
2019-06-20T17:23:03.434Z,77.40
2019-06-20T17:25:29.773Z,78.50
2019-06-20T17:27:56.015Z,77.80
2019-06-20T17:30:22.680Z,78.60
2019-06-20T17:32:49.336Z,78.10
2019-06-20T17:35:17.551Z,78.90
2019-06-20T17:37:45.029Z,78.70
2019-06-20T17:40:13.120Z,78.90
2019-06-20T17:42:39.362Z,79.30
2019-06-20T17:45:08.803Z,79.80
2019-06-20T17:47:35.198Z,79.20
2019-06-20T17:50:04.084Z,80.00
2019-06-20T17:52:30.352Z,79.60
2019-06-20T17:54:56.849Z,79.90
2019-06-20T17:57:23.099Z,79.50
2019-06-20T17:59:49.334Z,79.80
2019-06-20T18:02:15.682Z,79.20
2019-06-20T18:04:41.899Z,79.70
2019-06-20T18:07:08.228Z,80.70
2019-06-20T18:09:34.451Z,81.10
2019-06-20T18:12:03.128Z,80.60
2019-06-20T18:14:29.438Z,80.90
2019-06-20T18:16:55.823Z,80.90
2019-06-20T18:19:22.164Z,80.80
2019-06-20T18:21:48.487Z,81.60
2019-06-20T18:24:14.854Z,83.10
2019-06-20T18:26:41.224Z,83.70
2019-06-20T18:29:07.623Z,85.00
2019-06-20T18:31:33.954Z,85.70
2019-06-20T18:34:00.187Z,86.50
2019-06-20T18:36:26.505Z,86.90
2019-06-20T18:38:52.751Z,87.10
2019-06-20T18:41:19.020Z,87.70
2019-06-20T18:43:45.272Z,88.20
2019-06-20T18:46:11.811Z,88.80
2019-06-20T18:48:38.084Z,88.80
2019-06-20T18:51:04.326Z,88.10
2019-06-20T18:53:30.574Z,88.30
2019-06-20T18:55:56.870Z,88.50
2019-06-20T18:58:23.220Z,88.20
2019-06-20T19:00:50.230Z,88.10
2019-06-20T19:03:16.463Z,88.40
2019-06-20T19:05:42.828Z,88.70
2019-06-20T19:08:09.079Z,89.20
2019-06-20T19:10:35.312Z,89.10
2019-06-20T19:13:01.564Z,88.40
2019-06-20T19:15:28.077Z,88.20
2019-06-20T19:17:54.302Z,88.10
2019-06-20T19:20:20.946Z,88.10
2019-06-20T19:22:47.313Z,88.30
2019-06-20T19:25:13.859Z,88.40
2019-06-20T19:27:46.139Z,89.10
2019-06-20T19:30:12.256Z,89.70
2019-06-20T19:32:38.477Z,89.60
2019-06-20T19:35:09.212Z,89.70
2019-06-20T19:37:34.279Z,89.90
2019-06-20T19:40:00.547Z,89.60
2019-06-20T19:42:27.346Z,89.50
2019-06-20T19:44:53.691Z,89.70
2019-06-20T19:47:20.212Z,89.60
2019-06-20T19:49:46.471Z,89.40
2019-06-20T19:52:12.732Z,89.60
2019-06-20T19:54:39.177Z,89.90
2019-06-20T19:57:05.969Z,89.80
2019-06-20T19:59:32.379Z,89.50
2019-06-20T20:01:58.687Z,89.40
2019-06-20T20:04:24.953Z,89.70
2019-06-20T20:06:51.211Z,89.50
2019-06-20T20:09:17.617Z,89.80
2019-06-20T20:11:43.968Z,90.00
2019-06-20T20:14:10.441Z,90.50
2019-06-20T20:16:36.701Z,90.50
2019-06-20T20:19:03.288Z,90.50
2019-06-20T20:21:29.563Z,90.50
2019-06-20T20:23:55.798Z,90.80
2019-06-20T20:26:22.061Z,91.50
2019-06-20T20:28:48.550Z,91.80
2019-06-20T20:31:14.795Z,91.60
2019-06-20T20:33:41.127Z,91.30
2019-06-20T20:36:07.467Z,91.00
2019-06-20T20:38:33.888Z,90.90
2019-06-20T20:41:00.167Z,90.60
2019-06-20T20:43:26.730Z,90.70
2019-06-20T20:45:53.080Z,92.10
2019-06-20T20:48:19.491Z,94.30
2019-06-20T20:50:45.844Z,94.70
2019-06-20T20:53:12.315Z,94.20
2019-06-20T20:55:38.691Z,93.50
2019-06-20T20:58:04.996Z,92.70
2019-06-20T21:00:47.130Z,92.10
2019-06-20T21:03:13.462Z,92.10
2019-06-20T21:05:50.975Z,91.70
2019-06-20T21:08:07.895Z,91.80
2019-06-20T21:10:35.233Z,92.00
2019-06-20T21:13:01.522Z,92.00
2019-06-20T21:15:27.797Z,92.20
2019-06-20T21:17:55.817Z,92.30
2019-06-20T21:20:22.312Z,91.90
2019-06-20T21:22:48.536Z,91.90
2019-06-20T21:25:15.163Z,91.50
2019-06-20T21:27:42.647Z,91.80
2019-06-20T21:30:11.393Z,92.00
2019-06-20T21:32:37.909Z,92.00
2019-06-20T21:35:06.369Z,92.00
2019-06-20T21:37:32.756Z,92.20
2019-06-20T21:39:59.090Z,92.20
2019-06-20T21:42:25.494Z,93.50
2019-06-20T21:44:51.733Z,94.10
2019-06-20T21:47:18.073Z,94.00
2019-06-20T21:49:44.450Z,93.80
2019-06-20T21:52:10.686Z,93.20
2019-06-20T21:54:36.936Z,93.30
2019-06-20T21:57:03.284Z,93.30
2019-06-20T21:59:30.938Z,93.30
2019-06-20T22:01:57.490Z,93.30
2019-06-20T22:04:24.003Z,93.30
2019-06-20T22:06:50.225Z,93.40
2019-06-20T22:09:16.486Z,93.50
2019-06-20T22:11:43.422Z,93.60
2019-06-20T22:14:09.886Z,93.60
2019-06-20T22:16:36.129Z,93.20
2019-06-20T22:19:02.805Z,92.90
2019-06-20T22:21:29.040Z,93.10
2019-06-20T22:23:55.283Z,92.90
2019-06-20T22:26:21.615Z,92.80
2019-06-20T22:28:47.957Z,92.70
2019-06-20T22:31:14.229Z,92.60
2019-06-20T22:33:40.555Z,92.30
2019-06-20T22:36:06.846Z,92.50
2019-06-20T22:38:33.140Z,92.60
2019-06-20T22:40:59.726Z,92.80
2019-06-20T22:43:25.987Z,93.00
2019-06-20T22:45:52.223Z,92.90
2019-06-20T22:48:18.820Z,92.90
2019-06-20T22:50:45.079Z,93.30
2019-06-20T22:53:11.435Z,93.20
2019-06-20T22:55:37.687Z,93.30
2019-06-20T22:58:04.941Z,93.60
2019-06-20T23:00:31.251Z,93.50
2019-06-20T23:02:57.715Z,93.90
2019-06-20T23:05:23.985Z,93.50
2019-06-20T23:07:50.273Z,93.70
2019-06-20T23:10:16.728Z,93.50
2019-06-20T23:12:42.991Z,94.50
2019-06-20T23:15:09.748Z,94.30
2019-06-20T23:17:36.110Z,94.20
2019-06-20T23:20:04.775Z,94.10
2019-06-20T23:22:31.047Z,93.60
2019-06-20T23:24:57.343Z,93.50
2019-06-20T23:27:23.804Z,93.50
2019-06-20T23:29:50.093Z,93.60
2019-06-20T23:32:16.436Z,93.80
2019-06-20T23:34:42.715Z,94.10
2019-06-20T23:37:13.084Z,94.10
2019-06-20T23:39:37.165Z,93.70
2019-06-20T23:42:03.467Z,93.20
2019-06-20T23:44:29.796Z,93.00
2019-06-20T23:47:07.441Z,93.30
2019-06-20T23:49:33.784Z,93.70
2019-06-20T23:52:01.946Z,93.20
2019-06-20T23:54:28.175Z,93.30
2019-06-20T23:56:54.624Z,93.30
2019-06-20T23:59:20.846Z,93.00
